Now boarding.
Please wait.

menu

fly Ocean Airline

fly Ocean Airline, part of the BELOCEAN Group, operates a modern and streamlined fleet of Airbus, Boeing and Bombardier aircraft from its hubs in Barcelona, Madrid and Malaga. Our comprehensive network covers city destinations all over Europe, thriving mega cities in Asia and dazzling destinations all over Latin America.

fly Ocean Airline offers its passengers world-class services in up to four classes, including Premium Economy and First Class suites. With a real business class on all European mainline flights, full catering, personal in-flight entertainment and outstanding personal space, we value passenger comfort and satisfaction as much as we value safety and reliability.

Together with our sister airline Eurobelgian Airlines, we cover more than 30 individual long-haul destinations and offer passengers a seamless experience throughout their flights. Our well-matched schedules and common services across our entire network leave nothing to be desired. State of the art dispatch and planning tools assist us and our crews in performing outstanding performances.

  • The pilot must be at least 16 years old
  • The pilot must be in possession of a copy of Microsoft® Flight Simulator X or Lockheed Martin PREPAR3D®
  • The pilot must understand, that he must file 3 pireps per month
  • The pilot must understand, that the application can be rejected at any time without reason
  • The pilot must understand, that he must fill in his data truthfully.
  • The pilot must understand, that he can only have 1 account
  • The pilot must understand, that the agrees to the storage of his data

fly Ocean Airlines!


Vatsim Radar

CID Callsign Departure Destination Aircraft Pilot Rating

Fleet


Hubs

LEMD Madrid Barajas

Airport Information METAR Runway Information

Current Weather:

LEMD 191300Z 04008KT 9999 DZ FEW020 SCT055 BKN075 16/15 Q1015 R88/29//95 NOSIG

Runway Facts:

Direction Length m Length ft Elevation m Elevation ft Surface
14R/32L 4,100 13,451 610 m 2,000 ft Asphalt
18L/36R 3,500 11,482 610 m 2,000 ft Asphalt
14L/32R 3,500 11,482 610 m 2,000 ft Asphalt
18R/36L 4,350 14,268 610 m 2,000 ft Asphalt/Concrete

LEBL Barcelona El-Prat

Airport Information METAR Runway Information

Current Weather:

LEBL 191300Z 06018KT 9999 FEW037 23/16 Q1015 NOSIG

Runway Facts:

Direction Length m Length ft Elevation m Elevation ft Surface
07L/25R 3,743 12,281 4 m 14 ft Asphalt concrete
07R/25L 2,660 8,727 4 m 14 ft Asphalt concrete
02/20 2,528 8,293 4 m 14 ft Asphalt concrete

LEMG Malaga

Airport Information METAR Runway Information

Current Weather:

LEMG 191300Z 09016KT 9999 FEW020 SCT030TCU BKN075 18/14 Q1011 TEMPO 4000 SHRA

Runway Facts:

Direction Length m Length ft Elevation m Elevation ft Surface
13/31 3,200 10,500 16 m 52 ft Asphalt
12/30 2,750 9,022 16 m 52 ft Asphalt